Avel Mor — WDJ6634 — position and weather

sailwx.info

Track history (hours):
 
Tides and Currents Weather Stations Pressure Air Temp Water Temp Dewpoint Dewpoint Depression Visibility Wind Speed Wind Dir Waves Ship Positions

Avel Mor

Owner: Ariantes LLC, Yorba Linda, CA. More information available from US FCC via Universal Licensing System and Coast Guard Vessel Documentation Center.

Last reported at 2018-Apr-07 02:22 UTC. Time now 2018-Apr-23 15:22 UTC.
Position N 33°43' W 118°17'.
Warning: this ship's position is 16 days out of date.

Length 16 m.

Type: Sailing vessel. MMSI: 367799710.

Date/timePositionNaut miles runAvg speedWind from/ knotsBaromVisibWave heightAir tempDewpointWater temp
2018-Apr-07 02:22N 33°43' W 118°17'0 0.0
2018-Apr-07 01:52N 33°43' W 118°17'0 0.0
2018-Apr-07 01:29N 33°43' W 118°17'1 2.9
2018-Apr-07 01:00N 33°43' W 118°15'1 1.7
2018-Apr-07 00:30N 33°43' W 118°14'2 4.2
2018-Apr-07 00:00N 33°44' W 118°12'2 3.9
2018-Apr-06 23:30N 33°45' W 118°11'3 5.5
2018-Apr-06 22:56N 33°45' W 118°07'1 2.2
2018-Apr-06 22:30N 33°44' W 118°07'3 4.9
2018-Apr-06 21:52N 33°41' W 118°09'4 2.8
2018-Apr-06 20:27N 33°38' W 118°12'2 4.1
2018-Apr-06 20:00N 33°39' W 118°13'3 5.4
2018-Apr-06 19:30N 33°42' W 118°15'  
Track history (hours):
 
Tides and Currents Weather Stations Pressure Air Temp Water Temp Dewpoint Dewpoint Depression Visibility Wind Speed Wind Dir Waves Ship Positions

Avel Mor

Owner: Ariantes LLC, Yorba Linda, CA. More information available from US FCC via Universal Licensing System and Coast Guard Vessel Documentation Center.

Last reported at 2018-Apr-07 02:22 UTC. Time now 2018-Apr-23 15:22 UTC.
Position N 33°43' W 118°17'.
Warning: this ship's position is 16 days out of date.

Length 16 m.

Type: Sailing vessel. MMSI: 367799710.

Date/timePositionNaut miles runAvg speedWind from/ knotsBaromVisibWave heightAir tempDewpointWater temp
2018-Apr-07 02:22N 33°43' W 118°17'0 0.0
2018-Apr-07 01:52N 33°43' W 118°17'0 0.0
2018-Apr-07 01:29N 33°43' W 118°17'1 2.9
2018-Apr-07 01:00N 33°43' W 118°15'1 1.7
2018-Apr-07 00:30N 33°43' W 118°14'2 4.2
2018-Apr-07 00:00N 33°44' W 118°12'2 3.9
2018-Apr-06 23:30N 33°45' W 118°11'3 5.5
2018-Apr-06 22:56N 33°45' W 118°07'1 2.2
2018-Apr-06 22:30N 33°44' W 118°07'3 4.9
2018-Apr-06 21:52N 33°41' W 118°09'4 2.8
2018-Apr-06 20:27N 33°38' W 118°12'2 4.1
2018-Apr-06 20:00N 33°39' W 118°13'3 5.4
2018-Apr-06 19:30N 33°42' W 118°15'  

Dump ship's entire track history